Time,TemperatureF,DewpointF,PressureIn,WindDirection,WindDirectionDegrees,WindSpeedMPH,WindSpeedGustMPH,Humidity,HourlyPrecipIn,Conditions,Clouds,dailyrainin,SoftwareType,DateUTC
2013-03-15 00:03:00,56.0,44.0,30.29,SSW,207,2.0,7.0,64,0.00,,,0.00,Wunderground v.1.15,2013-03-15 05:03:00,
2013-03-15 00:08:00,55.8,44.2,30.29,SSE,159,3.0,5.0,65,0.00,,,0.00,Wunderground v.1.15,2013-03-15 05:08:00,
2013-03-15 00:14:00,55.6,44.0,30.29,WSW,240,3.0,5.0,65,0.00,,,0.00,Wunderground v.1.15,2013-03-15 05:14:00,
2013-03-15 00:19:00,55.4,44.2,30.29,SSW,206,2.0,2.0,66,0.00,,,0.00,Wunderground v.1.15,2013-03-15 05:19:00,
2013-03-15 00:25:00,55.3,44.1,30.29,SW,232,2.0,2.0,66,0.00,,,0.00,Wunderground v.1.15,2013-03-15 05:25:00,
2013-03-15 00:30:00,55.1,44.3,30.28,WSW,245,2.0,4.0,67,0.00,,,0.00,Wunderground v.1.15,2013-03-15 05:30:00,
2013-03-15 00:35:00,54.9,44.1,30.28,SW,236,3.0,4.0,67,0.00,,,0.00,Wunderground v.1.15,2013-03-15 05:35:00,
2013-03-15 00:40:00,54.8,44.4,30.27,WSW,255,2.0,4.0,68,0.00,,,0.00,Wunderground v.1.15,2013-03-15 05:40:00,
2013-03-15 00:46:00,54.6,44.2,30.27,SW,218,2.0,4.0,68,0.00,,,0.00,Wunderground v.1.15,2013-03-15 05:46:00,
2013-03-15 00:51:00,54.5,44.2,30.27,SW,228,3.0,3.0,68,0.00,,,0.00,Wunderground v.1.15,2013-03-15 05:51:00,
2013-03-15 00:56:00,54.3,44.3,30.27,SW,221,3.0,3.0,69,0.00,,,0.00,Wunderground v.1.15,2013-03-15 05:56:00,
2013-03-15 01:02:00,54.2,44.2,30.27,West,262,2.0,6.0,69,0.00,,,0.00,Wunderground v.1.15,2013-03-15 06:02:00,
2013-03-15 01:07:00,54.1,44.2,30.27,SW,214,2.0,6.0,69,0.00,,,0.00,Wunderground v.1.15,2013-03-15 06:07:00,
2013-03-15 01:14:00,53.9,44.3,30.27,SSE,159,2.0,6.0,70,0.00,,,0.00,Wunderground v.1.15,2013-03-15 06:14:00,
2013-03-15 01:20:00,53.7,44.1,30.27,South,185,1.0,6.0,70,0.00,,,0.00,Wunderground v.1.15,2013-03-15 06:20:00,
2013-03-15 01:25:00,53.6,44.4,30.27,SSW,210,1.0,6.0,71,0.00,,,0.00,Wunderground v.1.15,2013-03-15 06:25:00,
2013-03-15 01:30:00,53.4,44.2,30.27,SSE,160,1.0,6.0,71,0.00,,,0.00,Wunderground v.1.15,2013-03-15 06:30:00,
2013-03-15 01:36:00,53.2,44.0,30.27,SW,224,1.0,6.0,71,0.00,,,0.00,Wunderground v.1.15,2013-03-15 06:36:00,
2013-03-15 01:41:00,53.0,44.2,30.27,WSW,240,0.0,6.0,72,0.00,,,0.00,Wunderground v.1.15,2013-03-15 06:41:00,
2013-03-15 01:46:00,52.7,43.9,30.27,WSW,240,0.0,6.0,72,0.00,,,0.00,Wunderground v.1.15,2013-03-15 06:46:00,
2013-03-15 01:52:00,52.5,44.1,30.27,SW,235,0.0,6.0,73,0.00,,,0.00,Wunderground v.1.15,2013-03-15 06:52:00,
2013-03-15 01:57:00,52.2,43.8,30.27,SW,218,1.0,6.0,73,0.00,,,0.00,Wunderground v.1.15,2013-03-15 06:57:00,
2013-03-15 02:02:00,52.0,44.0,30.27,SW,218,0.0,6.0,74,0.00,,,0.00,Wunderground v.1.15,2013-03-15 07:02:00,
2013-03-15 02:08:00,51.7,44.0,30.27,SSW,212,0.0,6.0,75,0.00,,,0.00,Wunderground v.1.15,2013-03-15 07:08:00,
2013-03-15 02:14:00,51.7,44.0,30.26,SW,221,1.0,6.0,75,0.00,,,0.00,Wunderground v.1.15,2013-03-15 07:14:00,
2013-03-15 02:20:00,51.8,44.1,30.26,SW,223,1.0,6.0,75,0.00,,,0.00,Wunderground v.1.15,2013-03-15 07:20:00,
2013-03-15 02:25:00,51.7,44.0,30.26,SW,233,1.0,6.0,75,0.00,,,0.00,Wunderground v.1.15,2013-03-15 07:25:00,
2013-03-15 02:30:00,51.4,43.7,30.26,SSW,212,0.0,6.0,75,0.00,,,0.00,Wunderground v.1.15,2013-03-15 07:30:00,
2013-03-15 02:36:00,51.1,43.8,30.26,SW,225,0.0,6.0,76,0.00,,,0.00,Wunderground v.1.15,2013-03-15 07:36:00,
2013-03-15 02:42:00,51.0,44.0,30.26,SSW,207,0.0,6.0,77,0.00,,,0.00,Wunderground v.1.15,2013-03-15 07:42:00,
2013-03-15 02:47:00,50.8,43.8,30.26,SSW,207,0.0,6.0,77,0.00,,,0.00,Wunderground v.1.15,2013-03-15 07:47:00,
2013-03-15 02:52:00,50.7,44.1,30.27,WSW,240,0.0,6.0,78,0.00,,,0.00,Wunderground v.1.15,2013-03-15 07:52:00,
2013-03-15 02:58:00,50.5,43.9,30.26,WSW,240,0.0,6.0,78,0.00,,,0.00,Wunderground v.1.15,2013-03-15 07:58:00,
2013-03-15 03:03:00,50.2,43.6,30.26,WSW,240,0.0,6.0,78,0.00,,,0.00,Wunderground v.1.15,2013-03-15 08:03:00,
2013-03-15 03:08:00,49.9,43.6,30.26,WSW,240,0.0,6.0,79,0.00,,,0.00,Wunderground v.1.15,2013-03-15 08:08:00,
2013-03-15 03:14:00,49.6,43.4,30.26,WSW,240,0.0,6.0,79,0.00,,,0.00,Wunderground v.1.15,2013-03-15 08:14:00,
2013-03-15 03:20:00,49.3,43.4,30.26,WSW,240,0.0,6.0,80,0.00,,,0.00,Wunderground v.1.15,2013-03-15 08:20:00,
2013-03-15 03:25:00,49.2,43.6,30.25,WSW,240,0.0,6.0,81,0.00,,,0.00,Wunderground v.1.15,2013-03-15 08:25:00,
2013-03-15 03:31:00,48.9,43.3,30.25,WSW,240,0.0,6.0,81,0.00,,,0.00,Wunderground v.1.15,2013-03-15 08:31:00,
2013-03-15 03:36:00,48.5,42.9,30.25,WSW,240,0.0,6.0,81,0.00,,,0.00,Wunderground v.1.15,2013-03-15 08:36:00,
2013-03-15 03:41:00,48.1,42.9,30.25,SW,216,0.0,6.0,82,0.00,,,0.00,Wunderground v.1.15,2013-03-15 08:41:00,
2013-03-15 03:47:00,48.1,43.2,30.25,South,184,0.0,6.0,83,0.00,,,0.00,Wunderground v.1.15,2013-03-15 08:47:00,
2013-03-15 03:53:00,48.2,43.3,30.25,South,184,0.0,6.0,83,0.00,,,0.00,Wunderground v.1.15,2013-03-15 08:53:00,
2013-03-15 03:58:00,48.3,43.4,30.25,South,185,0.0,6.0,83,0.00,,,0.00,Wunderground v.1.15,2013-03-15 08:58:00,
2013-03-15 04:03:00,48.2,43.3,30.25,South,184,0.0,6.0,83,0.00,,,0.00,Wunderground v.1.15,2013-03-15 09:03:00,
2013-03-15 04:10:00,48.1,43.5,30.25,WNW,285,0.0,6.0,84,0.00,,,0.00,Wunderground v.1.15,2013-03-15 09:10:00,
2013-03-15 04:15:00,47.8,42.9,30.25,WNW,285,0.0,6.0,83,0.00,,,0.00,Wunderground v.1.15,2013-03-15 09:15:00,
2013-03-15 04:21:00,47.7,43.1,30.25,WNW,285,0.0,6.0,84,0.00,,,0.00,Wunderground v.1.15,2013-03-15 09:21:00,
2013-03-15 04:26:00,47.5,42.9,30.25,WNW,285,0.0,6.0,84,0.00,,,0.00,Wunderground v.1.15,2013-03-15 09:26:00,
2013-03-15 04:32:00,47.1,42.8,30.25,WNW,285,0.0,6.0,85,0.00,,,0.00,Wunderground v.1.15,2013-03-15 09:32:00,
2013-03-15 04:37:00,46.9,42.6,30.25,WNW,285,0.0,6.0,85,0.00,,,0.00,Wunderground v.1.15,2013-03-15 09:37:00,
2013-03-15 04:43:00,46.5,42.2,30.25,WNW,285,0.0,6.0,85,0.00,,,0.00,Wunderground v.1.15,2013-03-15 09:43:00,
2013-03-15 04:48:00,46.1,41.8,30.25,WNW,285,0.0,6.0,85,0.00,,,0.00,Wunderground v.1.15,2013-03-15 09:48:00,
2013-03-15 04:54:00,45.9,42.2,30.25,WNW,285,0.0,6.0,87,0.00,,,0.00,Wunderground v.1.15,2013-03-15 09:54:00,
2013-03-15 05:00:00,45.7,42.1,30.25,WNW,285,0.0,6.0,87,0.00,,,0.00,Wunderground v.1.15,2013-03-15 10:00:00,
2013-03-15 05:05:00,45.6,42.0,30.25,WNW,285,0.0,6.0,87,0.00,,,0.00,Wunderground v.1.15,2013-03-15 10:05:00,
2013-03-15 05:10:00,45.7,42.6,30.25,WNW,285,0.0,6.0,89,0.00,,,0.00,Wunderground v.1.15,2013-03-15 10:10:00,
2013-03-15 05:16:00,45.7,42.3,30.25,WNW,285,0.0,6.0,88,0.00,,,0.00,Wunderground v.1.15,2013-03-15 10:16:00,
2013-03-15 05:21:00,45.9,42.5,30.25,WNW,285,0.0,6.0,88,0.00,,,0.00,Wunderground v.1.15,2013-03-15 10:21:00,
2013-03-15 05:27:00,45.9,42.5,30.25,WNW,285,0.0,6.0,88,0.00,,,0.00,Wunderground v.1.15,2013-03-15 10:27:00,
2013-03-15 05:32:00,45.6,42.3,30.25,WNW,285,0.0,6.0,88,0.00,,,0.00,Wunderground v.1.15,2013-03-15 10:32:00,
2013-03-15 05:37:00,45.7,42.6,30.24,WNW,285,0.0,6.0,89,0.00,,,0.00,Wunderground v.1.15,2013-03-15 10:37:00,
2013-03-15 05:42:00,45.5,42.2,30.25,WNW,285,0.0,6.0,88,0.00,,,0.00,Wunderground v.1.15,2013-03-15 10:42:00,
2013-03-15 05:48:00,45.5,42.4,30.25,WNW,285,0.0,6.0,89,0.00,,,0.00,Wunderground v.1.15,2013-03-15 10:48:00,
2013-03-15 05:53:00,45.3,42.2,30.25,WNW,285,0.0,6.0,89,0.00,,,0.00,Wunderground v.1.15,2013-03-15 10:53:00,
2013-03-15 06:00:00,45.1,42.1,30.25,WNW,285,0.0,6.0,89,0.00,,,0.00,Wunderground v.1.15,2013-03-15 11:00:00,
2013-03-15 06:05:00,44.8,41.8,30.25,WNW,285,0.0,6.0,89,0.00,,,0.00,Wunderground v.1.15,2013-03-15 11:05:00,
2013-03-15 06:11:00,44.6,41.8,30.25,WNW,285,0.0,6.0,90,0.00,,,0.00,Wunderground v.1.15,2013-03-15 11:11:00,
2013-03-15 06:16:00,44.6,41.8,30.25,WNW,285,0.0,6.0,90,0.00,,,0.00,Wunderground v.1.15,2013-03-15 11:16:00,
2013-03-15 06:21:00,44.5,41.7,30.25,WNW,285,0.0,6.0,90,0.00,,,0.00,Wunderground v.1.15,2013-03-15 11:21:00,
2013-03-15 06:27:00,44.5,42.0,30.25,WNW,285,0.0,6.0,91,0.00,,,0.00,Wunderground v.1.15,2013-03-15 11:27:00,
2013-03-15 06:32:00,44.5,42.0,30.25,WNW,285,0.0,6.0,91,0.00,,,0.00,Wunderground v.1.15,2013-03-15 11:32:00,
2013-03-15 06:38:00,44.5,42.0,30.25,WNW,285,0.0,6.0,91,0.00,,,0.00,Wunderground v.1.15,2013-03-15 11:38:00,
2013-03-15 06:43:00,44.6,42.1,30.25,WNW,285,0.0,6.0,91,0.00,,,0.00,Wunderground v.1.15,2013-03-15 11:43:00,
2013-03-15 06:48:00,44.5,42.0,30.25,WNW,285,0.0,6.0,91,0.00,,,0.00,Wunderground v.1.15,2013-03-15 11:48:00,
2013-03-15 06:54:00,44.4,41.9,30.25,WNW,285,0.0,6.0,91,0.00,,,0.00,Wunderground v.1.15,2013-03-15 11:54:00,
2013-03-15 07:00:00,44.5,42.0,30.25,WNW,285,0.0,6.0,91,0.00,,,0.00,Wunderground v.1.15,2013-03-15 12:00:00,
2013-03-15 07:05:00,44.4,41.9,30.25,WNW,285,0.0,6.0,91,0.00,,,0.00,Wunderground v.1.15,2013-03-15 12:05:00,
2013-03-15 07:11:00,44.4,41.9,30.25,WNW,285,0.0,6.0,91,0.00,,,0.00,Wunderground v.1.15,2013-03-15 12:11:00,
2013-03-15 07:16:00,44.2,41.7,30.25,WNW,285,0.0,6.0,91,0.00,,,0.00,Wunderground v.1.15,2013-03-15 12:16:00,
2013-03-15 07:21:00,44.1,41.6,30.25,WNW,285,0.0,6.0,91,0.00,,,0.00,Wunderground v.1.15,2013-03-15 12:21:00,
2013-03-15 07:27:00,44.1,41.6,30.25,WNW,302,0.0,6.0,91,0.00,,,0.00,Wunderground v.1.15,2013-03-15 12:27:00,
2013-03-15 07:33:00,44.0,41.5,30.25,WNW,302,0.0,6.0,91,0.00,,,0.00,Wunderground v.1.15,2013-03-15 12:33:00,
2013-03-15 07:38:00,44.3,42.1,30.25,WNW,302,0.0,6.0,92,0.00,,,0.00,Wunderground v.1.15,2013-03-15 12:38:00,
2013-03-15 07:44:00,44.8,42.6,30.25,WNW,302,0.0,6.0,92,0.00,,,0.00,Wunderground v.1.15,2013-03-15 12:44:00,
2013-03-15 07:50:00,45.6,43.4,30.25,WNW,302,0.0,6.0,92,0.00,,,0.00,Wunderground v.1.15,2013-03-15 12:50:00,
2013-03-15 07:55:00,46.5,44.3,30.25,WNW,302,0.0,6.0,92,0.00,,,0.00,Wunderground v.1.15,2013-03-15 12:55:00,
2013-03-15 08:00:00,47.3,44.8,30.25,SE,141,0.0,6.0,91,0.00,,,0.00,Wunderground v.1.15,2013-03-15 13:00:00,
2013-03-15 08:06:00,48.3,45.2,30.25,SSE,150,0.0,6.0,89,0.00,,,0.00,Wunderground v.1.15,2013-03-15 13:06:00,
2013-03-15 08:11:00,49.2,45.8,30.25,SSE,152,0.0,6.0,88,0.00,,,0.00,Wunderground v.1.15,2013-03-15 13:11:00,
2013-03-15 08:17:00,49.8,46.1,30.26,SSE,153,1.0,1.0,87,0.00,,,0.00,Wunderground v.1.15,2013-03-15 13:17:00,
2013-03-15 08:22:00,50.5,46.5,30.26,SE,132,1.0,6.0,86,0.00,,,0.00,Wunderground v.1.15,2013-03-15 13:22:00,
2013-03-15 08:28:00,51.1,46.7,30.26,SSE,150,1.0,6.0,85,0.00,,,0.00,Wunderground v.1.15,2013-03-15 13:28:00,
2013-03-15 08:33:00,52.1,47.7,30.26,SSE,163,1.0,6.0,85,0.00,,,0.00,Wunderground v.1.15,2013-03-15 13:33:00,
2013-03-15 08:40:00,53.4,48.4,30.26,SSE,154,1.0,6.0,83,0.00,,,0.00,Wunderground v.1.15,2013-03-15 13:40:00,
2013-03-15 08:45:00,53.9,48.5,30.26,SSE,163,1.0,6.0,82,0.00,,,0.00,Wunderground v.1.15,2013-03-15 13:45:00,
2013-03-15 08:50:00,54.6,48.9,30.27,South,176,1.0,6.0,81,0.00,,,0.00,Wunderground v.1.15,2013-03-15 13:50:00,
2013-03-15 08:57:00,55.3,49.6,30.27,SW,227,2.0,6.0,81,0.00,,,0.00,Wunderground v.1.15,2013-03-15 13:57:00,
2013-03-15 09:04:00,56.5,50.7,30.27,SSW,204,2.0,6.0,81,0.00,,,0.00,Wunderground v.1.15,2013-03-15 14:04:00,
2013-03-15 09:10:00,57.8,51.0,30.27,WSW,238,2.0,6.0,78,0.00,,,0.00,Wunderground v.1.15,2013-03-15 14:10:00,
2013-03-15 09:15:00,58.5,51.0,30.27,SW,227,3.0,6.0,76,0.00,,,0.00,Wunderground v.1.15,2013-03-15 14:15:00,
2013-03-15 09:20:00,59.3,51.7,30.27,SSE,166,3.0,6.0,76,0.00,,,0.00,Wunderground v.1.15,2013-03-15 14:20:00,
2013-03-15 09:26:00,59.8,51.5,30.27,West,273,2.0,6.0,74,0.00,,,0.00,Wunderground v.1.15,2013-03-15 14:26:00,
2013-03-15 09:31:00,60.3,51.6,30.27,WSW,238,3.0,6.0,73,0.00,,,0.00,Wunderground v.1.15,2013-03-15 14:31:00,
2013-03-15 09:37:00,60.9,52.2,30.27,West,278,3.0,6.0,73,0.00,,,0.00,Wunderground v.1.15,2013-03-15 14:37:00,
2013-03-15 09:44:00,61.5,52.4,30.26,WSW,248,2.0,6.0,72,0.00,,,0.00,Wunderground v.1.15,2013-03-15 14:44:00,
2013-03-15 09:49:00,61.7,52.2,30.27,SW,235,2.0,6.0,71,0.00,,,0.00,Wunderground v.1.15,2013-03-15 14:49:00,
2013-03-15 09:54:00,62.5,52.6,30.27,South,191,2.0,6.0,70,0.00,,,0.00,Wunderground v.1.15,2013-03-15 14:54:00,
2013-03-15 10:00:00,63.2,52.5,30.27,WNW,284,3.0,6.0,68,0.00,,,0.00,Wunderground v.1.15,2013-03-15 15:00:00,
2013-03-15 10:05:00,63.9,53.1,30.27,SW,225,3.0,6.0,68,0.00,,,0.00,Wunderground v.1.15,2013-03-15 15:05:00,
2013-03-15 10:11:00,63.9,52.7,30.26,SW,234,3.0,7.0,67,0.00,,,0.00,Wunderground v.1.15,2013-03-15 15:11:00,
2013-03-15 10:16:00,64.3,52.7,30.26,South,181,4.0,4.0,66,0.00,,,0.00,Wunderground v.1.15,2013-03-15 15:16:00,
2013-03-15 10:22:00,64.7,53.1,30.26,WSW,253,4.0,6.0,66,0.00,,,0.00,Wunderground v.1.15,2013-03-15 15:22:00,
2013-03-15 10:27:00,65.8,52.9,30.26,West,277,2.0,4.0,63,0.00,,,0.00,Wunderground v.1.15,2013-03-15 15:27:00,
2013-03-15 10:32:00,66.0,52.2,30.26,WNW,290,2.0,6.0,61,0.00,,,0.00,Wunderground v.1.15,2013-03-15 15:32:00,
2013-03-15 10:37:00,66.3,51.5,30.26,SSW,193,3.0,6.0,59,0.00,,,0.00,Wunderground v.1.15,2013-03-15 15:37:00,
2013-03-15 10:43:00,66.6,52.3,30.25,SW,217,3.0,6.0,60,0.00,,,0.00,Wunderground v.1.15,2013-03-15 15:43:00,
2013-03-15 10:48:00,67.1,51.8,30.25,SW,222,3.0,7.0,58,0.00,,,0.00,Wunderground v.1.15,2013-03-15 15:48:00,
2013-03-15 10:54:00,67.7,51.9,30.25,SW,217,3.0,7.0,57,0.00,,,0.00,Wunderground v.1.15,2013-03-15 15:54:00,
2013-03-15 11:00:00,67.8,51.0,30.25,WSW,253,3.0,6.0,55,0.00,,,0.00,Wunderground v.1.15,2013-03-15 16:00:00,
2013-03-15 11:05:00,68.5,51.7,30.25,West,260,3.0,7.0,55,0.00,,,0.00,Wunderground v.1.15,2013-03-15 16:05:00,
2013-03-15 11:10:00,68.3,51.0,30.24,SW,231,4.0,7.0,54,0.00,,,0.00,Wunderground v.1.15,2013-03-15 16:10:00,
2013-03-15 11:16:00,68.8,51.5,30.24,SSE,166,4.0,7.0,54,0.00,,,0.00,Wunderground v.1.15,2013-03-15 16:16:00,
2013-03-15 11:21:00,69.2,51.8,30.24,SE,132,3.0,6.0,54,0.00,,,0.00,Wunderground v.1.15,2013-03-15 16:21:00,
2013-03-15 11:26:00,69.5,50.6,30.24,SW,235,3.0,7.0,51,0.00,,,0.00,Wunderground v.1.15,2013-03-15 16:26:00,
2013-03-15 11:31:00,69.5,48.9,30.23,WSW,256,4.0,7.0,48,0.00,,,0.00,Wunderground v.1.15,2013-03-15 16:31:00,
2013-03-15 11:37:00,69.8,49.2,30.23,SSW,207,5.0,6.0,48,0.00,,,0.00,Wunderground v.1.15,2013-03-15 16:37:00,
2013-03-15 11:43:00,70.3,49.7,30.23,SW,235,4.0,6.0,48,0.00,,,0.00,Wunderground v.1.15,2013-03-15 16:43:00,
2013-03-15 11:48:00,71.3,48.9,30.23,SW,225,3.0,6.0,45,0.00,,,0.00,Wunderground v.1.15,2013-03-15 16:48:00,
2013-03-15 11:55:00,71.4,48.3,30.23,South,172,5.0,6.0,44,0.00,,,0.00,Wunderground v.1.15,2013-03-15 16:55:00,
2013-03-15 12:00:00,72.1,47.7,30.23,WSW,246,5.0,10.0,42,0.00,,,0.00,Wunderground v.1.15,2013-03-15 17:00:00,
2013-03-15 12:06:00,72.4,48.6,30.22,WSW,240,4.0,10.0,43,0.00,,,0.00,Wunderground v.1.15,2013-03-15 17:06:00,
2013-03-15 12:12:00,73.2,48.7,30.22,WSW,238,3.0,6.0,42,0.00,,,0.00,Wunderground v.1.15,2013-03-15 17:12:00,
2013-03-15 12:17:00,73.4,48.3,30.22,WSW,238,3.0,9.0,41,0.00,,,0.00,Wunderground v.1.15,2013-03-15 17:17:00,
2013-03-15 12:23:00,73.8,48.0,30.21,SW,228,4.0,9.0,40,0.00,,,0.00,Wunderground v.1.15,2013-03-15 17:23:00,
2013-03-15 12:28:00,74.5,49.2,30.21,SW,224,3.0,5.0,41,0.00,,,0.00,Wunderground v.1.15,2013-03-15 17:28:00,
2013-03-15 12:33:00,74.4,48.5,30.20,SSE,156,4.0,6.0,40,0.00,,,0.00,Wunderground v.1.15,2013-03-15 17:33:00,
2013-03-15 12:38:00,74.6,48.7,30.20,WSW,246,5.0,7.0,40,0.00,,,0.00,Wunderground v.1.15,2013-03-15 17:38:00,
2013-03-15 12:43:00,74.9,47.6,30.20,SW,221,5.0,7.0,38,0.00,,,0.00,Wunderground v.1.15,2013-03-15 17:43:00,
2013-03-15 12:49:00,74.9,48.9,30.19,SSW,201,4.0,5.0,40,0.00,,,0.00,Wunderground v.1.15,2013-03-15 17:49:00,
2013-03-15 12:55:00,75.0,47.7,30.19,WSW,257,4.0,9.0,38,0.00,,,0.00,Wunderground v.1.15,2013-03-15 17:55:00,
2013-03-15 13:00:00,75.3,50.0,30.19,WSW,253,4.0,10.0,41,0.00,,,0.00,Wunderground v.1.15,2013-03-15 18:00:00,
2013-03-15 13:05:00,75.9,48.5,30.18,WSW,242,4.0,10.0,38,0.00,,,0.00,Wunderground v.1.15,2013-03-15 18:05:00,
2013-03-15 13:10:00,75.8,49.1,30.18,SW,235,5.0,11.0,39,0.00,,,0.00,Wunderground v.1.15,2013-03-15 18:10:00,
2013-03-15 13:15:00,75.7,48.3,30.18,SW,217,6.0,11.0,38,0.00,,,0.00,Wunderground v.1.15,2013-03-15 18:15:00,
2013-03-15 13:21:00,75.5,49.5,30.17,WNW,290,6.0,10.0,40,0.00,,,0.00,Wunderground v.1.15,2013-03-15 18:21:00,
2013-03-15 13:26:00,75.8,49.8,30.17,South,176,5.0,10.0,40,0.00,,,0.00,Wunderground v.1.15,2013-03-15 18:26:00,
2013-03-15 13:32:00,75.6,48.2,30.16,South,169,6.0,10.0,38,0.00,,,0.00,Wunderground v.1.15,2013-03-15 18:32:00,
2013-03-15 13:37:00,76.2,50.1,30.16,South,174,7.0,10.0,40,0.00,,,0.00,Wunderground v.1.15,2013-03-15 18:37:00,
2013-03-15 13:43:00,76.6,49.8,30.15,SW,228,6.0,15.0,39,0.00,,,0.00,Wunderground v.1.15,2013-03-15 18:43:00,
2013-03-15 13:48:00,76.4,48.9,30.14,SW,214,6.0,10.0,38,0.00,,,0.00,Wunderground v.1.15,2013-03-15 18:48:00,
2013-03-15 13:53:00,76.5,49.7,30.14,SSW,204,7.0,12.0,39,0.00,,,0.00,Wunderground v.1.15,2013-03-15 18:53:00,
2013-03-15 13:59:00,76.6,49.1,30.14,SSW,207,6.0,13.0,38,0.00,,,0.00,Wunderground v.1.15,2013-03-15 18:59:00,
2013-03-15 14:05:00,76.5,48.3,30.14,SSW,204,7.0,13.0,37,0.00,,,0.00,Wunderground v.1.15,2013-03-15 19:05:00,
2013-03-15 14:10:00,76.7,49.2,30.14,WSW,242,6.0,10.0,38,0.00,,,0.00,Wunderground v.1.15,2013-03-15 19:10:00,
2013-03-15 14:15:00,77.0,48.0,30.13,SW,219,6.0,11.0,36,0.00,,,0.00,Wunderground v.1.15,2013-03-15 19:15:00,
2013-03-15 14:21:00,77.0,48.7,30.13,South,186,6.0,10.0,37,0.00,,,0.00,Wunderground v.1.15,2013-03-15 19:21:00,
2013-03-15 14:27:00,77.6,49.3,30.12,WNW,285,4.0,4.0,37,0.00,,,0.00,Wunderground v.1.15,2013-03-15 19:27:00,
2013-03-15 14:32:00,77.6,50.0,30.12,SW,221,5.0,11.0,38,0.00,,,0.00,Wunderground v.1.15,2013-03-15 19:32:00,
2013-03-15 14:38:00,77.5,49.2,30.12,WSW,243,7.0,12.0,37,0.00,,,0.00,Wunderground v.1.15,2013-03-15 19:38:00,
2013-03-15 14:43:00,77.9,50.9,30.11,SSW,205,6.0,12.0,39,0.00,,,0.00,Wunderground v.1.15,2013-03-15 19:43:00,
2013-03-15 14:48:00,77.8,48.7,30.11,SSW,207,6.0,10.0,36,0.00,,,0.00,Wunderground v.1.15,2013-03-15 19:48:00,
2013-03-15 14:53:00,78.2,49.8,30.11,SW,224,5.0,10.0,37,0.00,,,0.00,Wunderground v.1.15,2013-03-15 19:53:00,
2013-03-15 15:00:00,78.3,49.1,30.11,SSE,159,5.0,10.0,36,0.00,,,0.00,Wunderground v.1.15,2013-03-15 20:00:00,
2013-03-15 15:05:00,78.1,49.7,30.10,SW,231,6.0,10.0,37,0.00,,,0.00,Wunderground v.1.15,2013-03-15 20:05:00,
2013-03-15 15:11:00,77.9,50.2,30.10,SW,214,6.0,10.0,38,0.00,,,0.00,Wunderground v.1.15,2013-03-15 20:11:00,
2013-03-15 15:17:00,78.4,51.4,30.10,SW,221,5.0,14.0,39,0.00,,,0.00,Wunderground v.1.15,2013-03-15 20:17:00,
2013-03-15 15:22:00,78.3,50.6,30.09,West,269,4.0,14.0,38,0.00,,,0.00,Wunderground v.1.15,2013-03-15 20:22:00,
2013-03-15 15:27:00,78.8,52.4,30.09,SSE,163,4.0,10.0,40,0.00,,,0.00,Wunderground v.1.15,2013-03-15 20:27:00,
2013-03-15 15:33:00,78.8,51.7,30.09,SW,215,5.0,10.0,39,0.00,,,0.00,Wunderground v.1.15,2013-03-15 20:33:00,
2013-03-15 15:38:00,78.3,52.0,30.09,SW,219,7.0,10.0,40,0.00,,,0.00,Wunderground v.1.15,2013-03-15 20:38:00,
2013-03-15 15:44:00,78.3,53.3,30.09,WSW,248,7.0,10.0,42,0.00,,,0.00,Wunderground v.1.15,2013-03-15 20:44:00,
2013-03-15 15:50:00,78.1,53.1,30.08,SW,218,7.0,11.0,42,0.00,,,0.00,Wunderground v.1.15,2013-03-15 20:50:00,
2013-03-15 15:55:00,77.9,53.0,30.08,SSW,198,7.0,11.0,42,0.00,,,0.00,Wunderground v.1.15,2013-03-15 20:55:00,
2013-03-15 16:00:00,78.3,54.0,30.08,SSE,158,5.0,10.0,43,0.00,,,0.00,Wunderground v.1.15,2013-03-15 21:00:00,
2013-03-15 16:06:00,78.3,53.3,30.08,South,176,5.0,10.0,42,0.00,,,0.00,Wunderground v.1.15,2013-03-15 21:06:00,
2013-03-15 16:11:00,78.1,52.5,30.08,South,170,7.0,10.0,41,0.00,,,0.00,Wunderground v.1.15,2013-03-15 21:11:00,
2013-03-15 16:16:00,77.8,52.9,30.08,South,183,7.0,7.0,42,0.00,,,0.00,Wunderground v.1.15,2013-03-15 21:16:00,
2013-03-15 16:22:00,77.8,52.9,30.08,SSE,149,6.0,10.0,42,0.00,,,0.00,Wunderground v.1.15,2013-03-15 21:22:00,
2013-03-15 16:27:00,77.7,52.8,30.08,WSW,253,5.0,6.0,42,0.00,,,0.00,Wunderground v.1.15,2013-03-15 21:27:00,
2013-03-15 16:33:00,77.5,52.6,30.08,SW,229,5.0,11.0,42,0.00,,,0.00,Wunderground v.1.15,2013-03-15 21:33:00,
2013-03-15 16:38:00,77.5,52.6,30.08,SW,218,5.0,10.0,42,0.00,,,0.00,Wunderground v.1.15,2013-03-15 21:38:00,
2013-03-15 16:43:00,77.4,53.1,30.08,South,174,5.0,10.0,43,0.00,,,0.00,Wunderground v.1.15,2013-03-15 21:43:00,
2013-03-15 16:49:00,77.5,53.9,30.08,SSW,210,5.0,10.0,44,0.00,,,0.00,Wunderground v.1.15,2013-03-15 21:49:00,
2013-03-15 16:55:00,77.3,54.3,30.08,SSW,194,6.0,10.0,45,0.00,,,0.00,Wunderground v.1.15,2013-03-15 21:55:00,
2013-03-15 17:00:00,77.0,54.0,30.08,SW,228,6.0,10.0,45,0.00,,,0.00,Wunderground v.1.15,2013-03-15 22:00:00,
2013-03-15 17:06:00,76.7,53.1,30.08,SSE,148,6.0,10.0,44,0.00,,,0.00,Wunderground v.1.15,2013-03-15 22:06:00,
2013-03-15 17:11:00,76.6,54.3,30.08,SSW,210,6.0,10.0,46,0.00,,,0.00,Wunderground v.1.15,2013-03-15 22:11:00,
2013-03-15 17:16:00,76.5,54.2,30.08,WSW,239,6.0,10.0,46,0.00,,,0.00,Wunderground v.1.15,2013-03-15 22:16:00,
2013-03-15 17:21:00,76.4,54.7,30.07,SW,215,6.0,11.0,47,0.00,,,0.00,Wunderground v.1.15,2013-03-15 22:21:00,
2013-03-15 17:27:00,76.2,54.5,30.08,South,172,6.0,6.0,47,0.00,,,0.00,Wunderground v.1.15,2013-03-15 22:27:00,
2013-03-15 17:32:00,76.2,54.5,30.08,WSW,251,6.0,10.0,47,0.00,,,0.00,Wunderground v.1.15,2013-03-15 22:32:00,
2013-03-15 17:37:00,76.1,54.4,30.07,SW,234,5.0,10.0,47,0.00,,,0.00,Wunderground v.1.15,2013-03-15 22:37:00,
2013-03-15 17:43:00,76.2,52.7,30.07,SW,233,4.0,10.0,44,0.00,,,0.00,Wunderground v.1.15,2013-03-15 22:43:00,
2013-03-15 17:48:00,76.1,53.2,30.08,South,184,5.0,7.0,45,0.00,,,0.00,Wunderground v.1.15,2013-03-15 22:48:00,
2013-03-15 17:53:00,75.9,53.0,30.08,SSW,213,4.0,10.0,45,0.00,,,0.00,Wunderground v.1.15,2013-03-15 22:53:00,
2013-03-15 17:58:00,75.8,52.9,30.08,SW,219,4.0,10.0,45,0.00,,,0.00,Wunderground v.1.15,2013-03-15 22:58:00,
2013-03-15 18:05:00,75.6,53.9,30.08,South,190,4.0,10.0,47,0.00,,,0.00,Wunderground v.1.15,2013-03-15 23:05:00,
2013-03-15 18:10:00,75.3,53.1,30.08,SW,219,5.0,10.0,46,0.00,,,0.00,Wunderground v.1.15,2013-03-15 23:10:00,
2013-03-15 18:15:00,75.1,52.9,30.08,SW,224,5.0,10.0,46,0.00,,,0.00,Wunderground v.1.15,2013-03-15 23:15:00,
2013-03-15 18:21:00,74.7,54.3,30.08,SW,224,5.0,12.0,49,0.00,,,0.00,Wunderground v.1.15,2013-03-15 23:21:00,
2013-03-15 18:27:00,74.2,55.4,30.08,SSW,198,7.0,10.0,52,0.00,,,0.00,Wunderground v.1.15,2013-03-15 23:27:00,
2013-03-15 18:32:00,73.8,55.1,30.08,SSW,197,6.0,10.0,52,0.00,,,0.00,Wunderground v.1.15,2013-03-15 23:32:00,
2013-03-15 18:38:00,73.4,55.2,30.08,SSE,148,6.0,10.0,53,0.00,,,0.00,Wunderground v.1.15,2013-03-15 23:38:00,
2013-03-15 18:43:00,72.8,55.2,30.08,South,186,6.0,10.0,54,0.00,,,0.00,Wunderground v.1.15,2013-03-15 23:43:00,
2013-03-15 18:49:00,72.2,55.6,30.08,South,176,6.0,10.0,56,0.00,,,0.00,Wunderground v.1.15,2013-03-15 23:49:00,
2013-03-15 18:55:00,71.8,55.3,30.08,South,179,6.0,10.0,56,0.00,,,0.00,Wunderground v.1.15,2013-03-15 23:55:00,
2013-03-15 19:00:00,71.4,55.4,30.08,SW,217,5.0,10.0,57,0.00,,,0.00,Wunderground v.1.15,2013-03-16 00:00:00,
2013-03-15 19:06:00,71.0,55.5,30.08,South,177,5.0,10.0,58,0.00,,,0.00,Wunderground v.1.15,2013-03-16 00:06:00,
2013-03-15 19:11:00,70.5,55.5,30.08,SSW,209,5.0,10.0,59,0.00,,,0.00,Wunderground v.1.15,2013-03-16 00:11:00,
2013-03-15 19:17:00,70.1,55.6,30.08,South,180,4.0,4.0,60,0.00,,,0.00,Wunderground v.1.15,2013-03-16 00:17:00,
2013-03-15 19:22:00,69.6,55.6,30.09,SSW,201,5.0,10.0,61,0.00,,,0.00,Wunderground v.1.15,2013-03-16 00:22:00,
2013-03-15 19:28:00,69.3,55.3,30.09,South,188,4.0,10.0,61,0.00,,,0.00,Wunderground v.1.15,2013-03-16 00:28:00,
2013-03-15 19:33:00,68.8,55.2,30.09,South,172,4.0,10.0,62,0.00,,,0.00,Wunderground v.1.15,2013-03-16 00:33:00,
2013-03-15 19:39:00,68.4,55.3,30.09,SSE,166,4.0,10.0,63,0.00,,,0.00,Wunderground v.1.15,2013-03-16 00:39:00,
2013-03-15 19:45:00,68.1,55.0,30.09,South,187,5.0,10.0,63,0.00,,,0.00,Wunderground v.1.15,2013-03-16 00:45:00,
2013-03-15 19:50:00,68.0,54.9,30.09,South,176,5.0,12.0,63,0.00,,,0.00,Wunderground v.1.15,2013-03-16 00:50:00,
2013-03-15 19:55:00,67.7,55.1,30.09,SSW,207,5.0,12.0,64,0.00,,,0.00,Wunderground v.1.15,2013-03-16 00:55:00,
2013-03-15 20:01:00,67.4,55.2,30.09,South,170,4.0,10.0,65,0.00,,,0.00,Wunderground v.1.15,2013-03-16 01:01:00,
2013-03-15 20:06:00,67.0,55.3,30.09,SW,228,4.0,10.0,66,0.00,,,0.00,Wunderground v.1.15,2013-03-16 01:06:00,
2013-03-15 20:12:00,66.7,55.0,30.09,SSW,194,4.0,10.0,66,0.00,,,0.00,Wunderground v.1.15,2013-03-16 01:12:00,
2013-03-15 20:17:00,66.5,55.2,30.09,SW,224,4.0,10.0,67,0.00,,,0.00,Wunderground v.1.15,2013-03-16 01:17:00,
2013-03-15 20:23:00,66.2,55.3,30.09,South,190,3.0,10.0,68,0.00,,,0.00,Wunderground v.1.15,2013-03-16 01:23:00,
2013-03-15 20:28:00,65.8,55.3,30.09,SSW,207,3.0,10.0,69,0.00,,,0.00,Wunderground v.1.15,2013-03-16 01:28:00,
2013-03-15 20:33:00,65.6,55.2,30.09,South,169,4.0,10.0,69,0.00,,,0.00,Wunderground v.1.15,2013-03-16 01:33:00,
2013-03-15 20:39:00,65.3,55.3,30.09,SW,228,4.0,10.0,70,0.00,,,0.00,Wunderground v.1.15,2013-03-16 01:39:00,
2013-03-15 20:44:00,65.0,55.4,30.09,SW,221,4.0,10.0,71,0.00,,,0.00,Wunderground v.1.15,2013-03-16 01:44:00,
2013-03-15 20:50:00,64.9,55.3,30.09,South,187,4.0,10.0,71,0.00,,,0.00,Wunderground v.1.15,2013-03-16 01:50:00,
2013-03-15 20:55:00,64.6,55.4,30.09,South,183,4.0,10.0,72,0.00,,,0.00,Wunderground v.1.15,2013-03-16 01:55:00,
2013-03-15 21:00:00,64.5,55.3,30.09,ESE,122,4.0,10.0,72,0.00,,,0.00,Wunderground v.1.15,2013-03-16 02:00:00,
2013-03-15 21:05:00,64.3,55.5,30.09,SSW,195,4.0,10.0,73,0.00,,,0.00,Wunderground v.1.15,2013-03-16 02:05:00,
2013-03-15 21:11:00,64.2,55.7,30.09,South,191,4.0,10.0,74,0.00,,,0.00,Wunderground v.1.15,2013-03-16 02:11:00,
2013-03-15 21:16:00,64.0,55.5,30.09,South,169,4.0,10.0,74,0.00,,,0.00,Wunderground v.1.15,2013-03-16 02:16:00,
2013-03-15 21:21:00,63.8,55.7,30.09,SW,223,4.0,10.0,75,0.00,,,0.00,Wunderground v.1.15,2013-03-16 02:21:00,
2013-03-15 21:27:00,63.6,55.5,30.09,South,169,4.0,10.0,75,0.00,,,0.00,Wunderground v.1.15,2013-03-16 02:27:00,
2013-03-15 21:32:00,63.4,55.7,30.09,South,181,3.0,10.0,76,0.00,,,0.00,Wunderground v.1.15,2013-03-16 02:32:00,
2013-03-15 21:37:00,63.4,56.1,30.09,South,172,4.0,10.0,77,0.00,,,0.00,Wunderground v.1.15,2013-03-16 02:37:00,
2013-03-15 21:44:00,63.2,56.2,30.09,SW,232,5.0,10.0,78,0.00,,,0.00,Wunderground v.1.15,2013-03-16 02:44:00,
2013-03-15 21:50:00,63.2,56.2,30.10,South,190,5.0,10.0,78,0.00,,,0.00,Wunderground v.1.15,2013-03-16 02:50:00,
2013-03-15 21:55:00,63.1,56.5,30.10,SW,218,5.0,10.0,79,0.00,,,0.00,Wunderground v.1.15,2013-03-16 02:55:00,
2013-03-15 22:00:00,63.0,56.4,30.10,WSW,242,5.0,10.0,79,0.00,,,0.00,Wunderground v.1.15,2013-03-16 03:00:00,
2013-03-15 22:06:00,62.8,56.5,30.10,SW,218,5.0,10.0,80,0.00,,,0.00,Wunderground v.1.15,2013-03-16 03:06:00,
2013-03-15 22:11:00,62.6,56.7,30.10,SSW,198,4.0,10.0,81,0.00,,,0.00,Wunderground v.1.15,2013-03-16 03:11:00,
2013-03-15 22:16:00,62.4,56.5,30.10,SW,217,3.0,10.0,81,0.00,,,0.00,Wunderground v.1.15,2013-03-16 03:16:00,
2013-03-15 22:22:00,62.2,56.6,30.10,SW,217,3.0,10.0,82,0.00,,,0.00,Wunderground v.1.15,2013-03-16 03:22:00,
2013-03-15 22:27:00,62.1,56.9,30.10,WSW,238,3.0,10.0,83,0.00,,,0.00,Wunderground v.1.15,2013-03-16 03:27:00,
2013-03-15 22:32:00,62.0,56.8,30.10,SW,219,3.0,10.0,83,0.00,,,0.00,Wunderground v.1.15,2013-03-16 03:32:00,
2013-03-15 22:38:00,61.9,56.7,30.10,SW,225,3.0,10.0,83,0.00,,,0.00,Wunderground v.1.15,2013-03-16 03:38:00,
2013-03-15 22:43:00,61.9,57.0,30.10,SSW,193,4.0,10.0,84,0.00,,,0.00,Wunderground v.1.15,2013-03-16 03:43:00,
2013-03-15 22:49:00,61.8,56.9,30.09,SW,233,4.0,10.0,84,0.00,,,0.00,Wunderground v.1.15,2013-03-16 03:49:00,
2013-03-15 22:55:00,61.8,56.9,30.09,SSW,210,4.0,10.0,84,0.00,,,0.00,Wunderground v.1.15,2013-03-16 03:55:00,
2013-03-15 23:00:00,61.7,56.8,30.09,SW,232,5.0,10.0,84,0.00,,,0.00,Wunderground v.1.15,2013-03-16 04:00:00,
2013-03-15 23:02:00,61.7,57.1,30.09,SSW,210,5.0,10.0,85,0.00,,,0.00,Wunderground v.1.15,2013-03-16 04:02:00,
2013-03-15 23:07:00,61.6,57.0,30.09,SW,235,4.0,10.0,85,0.00,,,0.00,Wunderground v.1.15,2013-03-16 04:07:00,
2013-03-15 23:13:00,61.4,56.8,30.09,South,179,3.0,10.0,85,0.00,,,0.00,Wunderground v.1.15,2013-03-16 04:13:00,
2013-03-15 23:18:00,61.4,57.2,30.09,SSW,212,4.0,10.0,86,0.00,,,0.00,Wunderground v.1.15,2013-03-16 04:18:00,
2013-03-15 23:24:00,61.3,57.1,30.09,SSW,200,4.0,10.0,86,0.00,,,0.00,Wunderground v.1.15,2013-03-16 04:24:00,
2013-03-15 23:30:00,61.2,57.0,30.09,SSE,166,4.0,10.0,86,0.00,,,0.00,Wunderground v.1.15,2013-03-16 04:30:00,
2013-03-15 23:35:00,61.1,56.9,30.09,WSW,238,4.0,10.0,86,0.00,,,0.00,Wunderground v.1.15,2013-03-16 04:35:00,
2013-03-15 23:40:00,61.0,57.1,30.08,SW,223,3.0,10.0,87,0.00,,,0.00,Wunderground v.1.15,2013-03-16 04:40:00,
2013-03-15 23:45:00,60.9,57.0,30.08,SSE,163,4.0,10.0,87,0.00,,,0.00,Wunderground v.1.15,2013-03-16 04:45:00,
2013-03-15 23:51:00,60.7,56.8,30.08,SW,224,4.0,10.0,87,0.00,,,0.00,Wunderground v.1.15,2013-03-16 04:51:00,
2013-03-15 23:56:00,60.5,56.9,30.08,SSW,210,3.0,3.0,88,0.00,,,0.00,Wunderground v.1.15,2013-03-16 04:56:00,